CheckWX is a tool to help pilots better visualize weather data.  It is not intended as a substitute for an official pre-flight weather briefing.

16:40:04 UTC

KDUJ TAF
Dubois Regional Airport
Dubois, Pennsylvania, USA
KDUJ 181135Z 1812/1912 29006KT P6SM SCT050 FM181700 29010KT P6SM VCSH BKN035 FM190300 30003KT P6SM SCT025

Mar-18@
12:00 UTC

Mar-18 @ 12:00 UTC

Mar-18@
17:00 UTC

Mar-18 @ 17:00 UTC

KDUJ 181135Z 1812/1912 29006KT P6SM SCT050
Wind
  • 290° at 6 KTS
Cloud Levels
  • Scattered at 5,000' AGL

Mar-18@
17:00 UTC

Mar-18 @ 17:00 UTC

Mar-19@
03:00 UTC

Mar-19 @ 03:00 UTC

FM181700 29010KT P6SM VCSH BKN035

From

From Standard forecast or significant change

Wind
  • 290° at 10 KTS
Cloud Levels
  • Broken at 3,500' AGL

Mar-19@
03:00 UTC

Mar-19 @ 03:00 UTC

Mar-19@
12:00 UTC

Mar-19 @ 12:00 UTC

FM190300 30003KT P6SM SCT025

From

From Standard forecast or significant change

Wind
  • 300° at 3 KTS
Cloud Levels
  • Scattered at 2,500' AGL